Tyro, Arkansas
Current Conditions -  °F | °C
As of 4:53 PM on Monday 24 Nov 2014 (Local Time) from KLLQ Reporting Station
Clear Clear  
Wind Chill: 53°   Ceiling: Unl
Heat Index: 53°   Visibility: 10mi
Dew Point: 33°   Wind: 5mph
Humidity: 47%   Direction: 270°W
Pressure: 29.99"   Gusts: NA
Location:  33.8021°N, 91.3887°W
Report Text: KLLQ 242253Z AUTO 27004KT 10SM CLR 12/01 A2999 RMK AO2 SLP156 T01170006
Loading
Personal Weather Stations






























Interactive Weather Map New forecast layout! Learn more

10-Day Weather Forecast

Advertisements
Track Severe Weather on mobile